Time;durP1;ratioP1;P1;durP2;ratioP2;P2;SDS_P1;SDS_P2;PMS_P1;PMS_P2;Temp;Humidity;BMP_temperature;BMP_pressure;BME280_temperature;BME280_humidity;BME280_pressure;Samples;Min_cycle;Max_cycle;Signal;HPM_P1;HPM_P2
2022/06/05 00:00:43;;;;;;;2.87;2.20;;;;;;;14.95;68.30;101687.59;5078535;22;20577;-66
2022/06/05 00:03:20;;;;;;;2.63;2.30;;;;;;;14.95;69.25;101677.50;5053137;28;20979;-66
2022/06/05 00:05:55;;;;;;;3.30;2.33;;;;;;;14.88;69.94;101677.91;5053137;28;20911;-69
2022/06/05 00:08:31;;;;;;;5.30;2.53;;;;;;;14.88;70.19;101675.19;5053090;28;20532;-68
2022/06/05 00:10:59;;;;;;;2.60;2.20;;;;;;;14.80;70.63;101672.34;5053314;28;20464;-68
2022/06/05 00:13:31;;;;;;;4.70;1.87;;;;;;;14.79;71.06;101681.66;5053188;28;20620;-69
2022/06/05 00:15:58;;;;;;;4.13;2.40;;;;;;;14.73;71.61;101671.94;5053457;28;20438;-68
2022/06/05 00:18:25;;;;;;;3.50;2.20;;;;;;;14.72;71.65;101670.31;5052934;28;20473;-69
2022/06/05 00:20:53;;;;;;;4.90;2.70;;;;;;;14.73;71.92;101674.66;5052836;28;20998;-67
2022/06/05 00:23:19;;;;;;;4.43;2.77;;;;;;;14.73;71.60;101670.00;5053105;28;20473;-69
2022/06/05 00:25:54;;;;;;;3.17;2.43;;;;;;;14.67;71.31;101673.16;5053122;28;20434;-69
2022/06/05 00:28:32;;;;;;;4.33;2.10;;;;;;;14.59;72.27;101671.94;5053249;28;20436;-69
2022/06/05 00:31:06;;;;;;;2.47;2.23;;;;;;;14.55;72.90;101673.63;5053115;28;20461;-72
2022/06/05 00:33:37;;;;;;;4.17;2.73;;;;;;;14.50;72.99;101674.53;5053011;28;21170;-69
2022/06/05 00:36:15;;;;;;;3.00;1.97;;;;;;;14.46;73.64;101675.41;5053126;28;20860;-68
2022/06/05 00:38:50;;;;;;;2.73;1.70;;;;;;;14.43;74.08;101676.81;5053078;28;20771;-69
2022/06/05 00:41:45;;;;;;;3.03;2.40;;;;;;;14.35;74.44;101674.78;5052659;28;21016;-69
2022/06/05 00:44:18;;;;;;;2.37;1.80;;;;;;;14.25;74.41;101670.31;5052873;28;20472;-69
2022/06/05 00:46:47;;;;;;;2.90;2.50;;;;;;;14.19;73.46;101668.78;5053240;28;20505;-69
2022/06/05 00:49:14;;;;;;;6.50;2.40;;;;;;;14.17;72.68;101667.47;5052961;28;20438;-70
2022/06/05 00:51:41;;;;;;;4.97;2.73;;;;;;;14.10;73.93;101665.13;5052977;28;20544;-68
2022/06/05 00:54:09;;;;;;;4.20;2.67;;;;;;;14.06;74.62;101673.09;5052789;28;20489;-69
2022/06/05 00:56:38;;;;;;;2.70;1.90;;;;;;;14.05;76.13;101673.38;5052993;28;20441;-69
2022/06/05 00:59:04;;;;;;;6.13;3.00;;;;;;;14.04;76.84;101672.59;5056834;28;20548;-68
2022/06/05 01:01:33;;;;;;;10.30;3.33;;;;;;;14.05;77.34;101678.84;5056410;28;20478;-67
2022/06/05 01:04:01;;;;;;;4.33;2.90;;;;;;;14.02;77.57;101674.78;5056443;28;20935;-68
2022/06/05 01:06:28;;;;;;;4.20;2.40;;;;;;;14.01;77.84;101669.63;5056709;28;20496;-69
2022/06/05 01:08:55;;;;;;;6.30;2.90;;;;;;;13.97;78.11;101674.88;5056757;28;20529;-68
2022/06/05 01:11:29;;;;;;;2.90;2.27;;;;;;;13.97;78.51;101665.88;5056751;28;20464;-70
2022/06/05 01:14:06;;;;;;;3.60;3.00;;;;;;;13.92;79.15;101669.50;5056591;28;20850;-68
2022/06/05 01:16:43;;;;;;;7.10;3.77;;;;;;;13.89;79.27;101668.16;5056594;28;20466;-69
2022/06/05 01:19:23;;;;;;;4.57;3.00;;;;;;;13.85;79.40;101669.88;5056490;28;20438;-68
2022/06/05 01:22:14;;;;;;;4.63;2.73;;;;;;;13.78;79.77;101661.28;5056724;28;20484;-69
2022/06/05 01:25:03;;;;;;;7.90;2.87;;;;;;;13.73;80.41;101661.38;5056449;28;20513;-69
2022/06/05 01:27:34;;;;;;;3.50;2.53;;;;;;;13.69;80.68;101667.69;5056597;28;20437;-68
2022/06/05 01:30:08;;;;;;;5.70;2.93;;;;;;;13.67;81.01;101665.25;5056283;28;20552;-68
2022/06/05 01:32:39;;;;;;;8.27;3.73;;;;;;;13.65;81.02;101659.31;5055939;28;20799;-68
2022/06/05 01:35:17;;;;;;;5.10;3.40;;;;;;;13.62;81.08;101657.16;5055857;28;20478;-68
2022/06/05 01:37:47;;;;;;;4.63;3.47;;;;;;;13.59;81.22;101665.91;5056265;28;20476;-68
2022/06/05 01:40:19;;;;;;;3.47;2.60;;;;;;;13.50;81.86;101660.34;5056103;28;20481;-70
2022/06/05 01:42:51;;;;;;;3.30;2.70;;;;;;;13.54;81.66;101658.63;5056108;28;20429;-68
2022/06/05 01:45:21;;;;;;;5.63;3.10;;;;;;;13.55;81.80;101659.47;5055823;28;20973;-70
2022/06/05 01:47:53;;;;;;;4.20;2.50;;;;;;;13.43;82.41;101640.03;5055671;28;20492;-68
2022/06/05 01:50:23;;;;;;;4.20;2.90;;;;;;;13.41;82.29;101642.22;5056136;28;20462;-72
2022/06/05 01:52:54;;;;;;;6.83;3.33;;;;;;;13.34;82.73;101637.97;5056020;28;20426;-71
2022/06/05 01:55:26;;;;;;;7.60;3.33;;;;;;;13.31;83.38;101643.19;5055774;28;20469;-69
2022/06/05 01:57:59;;;;;;;5.50;2.70;;;;;;;13.24;83.47;101650.91;5055856;28;20517;-67
2022/06/05 02:00:26;;;;;;;4.37;3.60;;;;;;;13.18;83.53;101647.41;5055273;28;20926;-68
2022/06/05 02:02:58;;;;;;;4.87;3.00;;;;;;;13.12;80.98;101648.56;5055416;28;20533;-68
2022/06/05 02:05:31;;;;;;;4.90;2.87;;;;;;;12.97;79.04;101646.03;5055909;28;20437;-69
2022/06/05 02:08:01;;;;;;;4.80;2.80;;;;;;;12.85;79.38;101644.56;5055292;28;20434;-68
2022/06/05 02:10:34;;;;;;;7.67;3.80;;;;;;;12.66;80.83;101646.41;5054670;28;20916;-68
2022/06/05 02:13:03;;;;;;;3.37;3.07;;;;;;;12.53;82.79;101644.38;5055536;28;20551;-68
2022/06/05 02:15:31;;;;;;;5.53;3.23;;;;;;;12.36;83.37;101642.91;5055172;28;21033;-69
2022/06/05 02:17:58;;;;;;;3.10;2.10;;;;;;;12.35;84.95;101643.16;5055439;28;20445;-68
2022/06/05 02:20:25;;;;;;;4.53;2.87;;;;;;;12.34;85.67;101650.53;5055027;28;21046;-68
2022/06/05 02:22:53;;;;;;;3.83;2.57;;;;;;;12.34;85.76;101644.28;5055362;28;20528;-68
2022/06/05 02:25:24;;;;;;;4.27;2.77;;;;;;;12.29;86.81;101636.19;5054945;28;20529;-70
2022/06/05 02:27:51;;;;;;;4.00;2.77;;;;;;;12.29;86.87;101642.41;5054960;28;20911;-67
2022/06/05 02:30:19;;;;;;;3.83;2.60;;;;;;;12.22;87.42;101641.97;5054734;28;21035;-69
2022/06/05 02:32:57;;;;;;;3.20;2.20;;;;;;;12.18;87.58;101637.38;5055162;28;20484;-69
2022/06/05 02:35:34;;;;;;;9.73;3.57;;;;;;;12.17;87.70;101631.13;5054720;28;21003;-69
2022/06/05 02:38:32;;;;;;;12.13;3.40;;;;;;;12.16;87.42;101632.22;5054762;28;20880;-68
2022/06/05 02:41:04;;;;;;;4.27;3.37;;;;;;;12.15;86.94;101627.91;5054927;28;20498;-68
2022/06/05 02:43:38;;;;;;;5.07;3.53;;;;;;;12.13;86.78;101630.09;5055010;28;20480;-69
2022/06/05 02:46:14;;;;;;;4.43;3.33;;;;;;;12.00;87.69;101630.75;5054882;28;20425;-69
2022/06/05 02:48:48;;;;;;;4.87;3.33;;;;;;;11.97;87.77;101628.59;5054822;28;20457;-69
2022/06/05 02:51:20;;;;;;;4.10;3.00;;;;;;;11.93;87.73;101631.06;5054768;28;20817;-70
2022/06/05 02:53:49;;;;;;;5.33;3.23;;;;;;;11.93;88.11;101625.63;5054810;28;20423;-69
2022/06/05 02:56:16;;;;;;;3.93;2.90;;;;;;;11.83;88.67;101631.16;5054656;28;20573;-69
2022/06/05 02:58:43;;;;;;;4.77;3.47;;;;;;;11.86;88.18;101620.53;5054719;28;20955;-68
2022/06/05 03:03:55;;;;;;;4.93;2.30;;;;;;;11.83;87.42;101618.38;5054448;28;20497;-69
2022/06/05 03:06:22;;;;;;;5.67;2.77;;;;;;;11.76;87.16;101623.28;5054457;28;20469;-70
2022/06/05 03:08:49;;;;;;;4.67;3.17;;;;;;;11.70;86.52;101624.44;5054087;28;20887;-69
2022/06/05 03:11:15;;;;;;;4.80;3.43;;;;;;;11.71;86.87;101623.34;5054294;28;20465;-69
2022/06/05 03:13:42;;;;;;;8.50;3.10;;;;;;;11.55;88.29;101619.94;5054324;28;20526;-68
2022/06/05 03:16:09;;;;;;;3.57;2.53;;;;;;;11.63;88.22;101621.22;5053922;28;20533;-68
2022/06/05 03:18:38;;;;;;;7.47;2.87;;;;;;;11.61;88.98;101623.41;5054297;28;20477;-67
2022/06/05 03:21:05;;;;;;;4.80;3.50;;;;;;;11.57;89.60;101628.59;5053938;28;20490;-68
2022/06/05 03:23:32;;;;;;;5.20;3.50;;;;;;;11.58;90.21;101624.78;5054204;28;20862;-67
2022/06/05 03:26:00;;;;;;;6.50;3.40;;;;;;;11.60;90.25;101640.78;5053809;28;20444;-68
2022/06/05 03:28:27;;;;;;;8.70;3.00;;;;;;;11.61;90.84;101626.13;5054039;28;20533;-69
2022/06/05 03:30:53;;;;;;;5.30;3.37;;;;;;;11.57;91.09;101620.44;5054329;28;20549;-73
2022/06/05 03:33:20;;;;;;;8.23;3.90;;;;;;;11.65;91.05;101624.47;5053639;28;21014;-69
2022/06/05 03:35:48;;;;;;;4.67;3.10;;;;;;;11.65;91.11;101631.81;5053603;28;21054;-69
2022/06/05 03:38:15;;;;;;;4.73;3.27;;;;;;;11.71;91.36;101634.19;5053900;28;20478;-68
2022/06/05 03:40:44;;;;;;;7.30;3.90;;;;;;;11.74;91.31;101638.25;5053766;28;20486;-71
2022/06/05 03:43:11;;;;;;;4.50;3.27;;;;;;;11.71;91.88;101628.75;5053509;28;20452;-67
2022/06/05 03:45:38;;;;;;;6.17;3.90;;;;;;;11.80;91.44;101632.50;5053759;28;20545;-67
2022/06/05 03:48:05;;;;;;;6.77;3.83;;;;;;;11.90;91.58;101634.34;5053716;28;20533;-67
2022/06/05 03:50:32;;;;;;;5.50;2.97;;;;;;;11.91;91.98;101633.28;5053342;28;20545;-67
2022/06/05 03:53:00;;;;;;;7.50;4.10;;;;;;;11.93;91.73;101639.22;5053878;28;20488;-66
2022/06/05 03:55:28;;;;;;;5.23;3.90;;;;;;;11.95;92.21;101636.19;5053289;28;20514;-67
2022/06/05 03:57:54;;;;;;;5.57;3.47;;;;;;;11.98;92.14;101636.44;5053222;28;20477;-67
2022/06/05 04:00:22;;;;;;;5.23;3.90;;;;;;;12.11;91.89;101624.94;5053171;28;20474;-67
2022/06/05 04:02:50;;;;;;;8.13;3.77;;;;;;;12.19;91.93;101618.06;5053428;28;20442;-67
2022/06/05 04:05:19;;;;;;;6.37;4.20;;;;;;;12.28;92.43;101616.34;5053450;28;20445;-67
2022/06/05 04:07:46;;;;;;;5.00;3.50;;;;;;;12.35;92.62;101621.44;5053450;28;20533;-68
2022/06/05 04:10:16;;;;;;;6.33;3.80;;;;;;;12.40;92.70;101634.19;5053012;28;20553;-67
2022/06/05 04:12:42;;;;;;;14.53;3.97;;;;;;;12.41;92.25;101631.19;5053260;28;20442;-68
2022/06/05 04:15:10;;;;;;;4.93;4.03;;;;;;;12.43;91.66;101625.44;5052887;28;20488;-67
2022/06/05 04:17:38;;;;;;;7.70;3.57;;;;;;;12.51;91.47;101636.50;5052918;28;20975;-67
2022/06/05 04:20:06;;;;;;;8.50;4.30;;;;;;;12.54;90.66;101640.56;5053187;28;20556;-67
2022/06/05 04:22:34;;;;;;;5.47;3.83;;;;;;;12.65;91.11;101639.34;5053443;28;20481;-67
2022/06/05 04:25:01;;;;;;;6.13;4.13;;;;;;;12.75;91.86;101636.53;5052789;28;20916;-67
2022/06/05 04:27:29;;;;;;;4.93;3.60;;;;;;;12.86;92.99;101632.56;5053149;28;20450;-67
2022/06/05 04:29:55;;;;;;;6.07;3.73;;;;;;;12.93;93.33;101636.88;5052732;28;21087;-67
2022/06/05 04:32:22;;;;;;;7.40;3.50;;;;;;;13.02;93.27;101629.69;5052555;28;20524;-67
2022/06/05 04:34:51;;;;;;;8.10;3.57;;;;;;;13.09;93.32;101620.03;5052761;28;20638;-67
2022/06/05 04:37:17;;;;;;;9.17;4.50;;;;;;;13.17;93.14;101615.84;5052933;28;20441;-67
2022/06/05 04:39:44;;;;;;;6.67;4.27;;;;;;;13.20;93.25;101618.00;5052893;28;20576;-68
2022/06/05 04:42:11;;;;;;;4.50;3.50;;;;;;;13.26;93.78;101614.13;5052606;28;20979;-67
2022/06/05 04:44:39;;;;;;;12.30;4.93;;;;;;;13.32;93.84;101612.94;5052948;28;20521;-68
2022/06/05 04:47:05;;;;;;;8.73;4.07;;;;;;;13.37;93.64;101595.75;5052685;28;20481;-68
2022/06/05 04:49:34;;;;;;;5.57;3.60;;;;;;;13.46;92.58;101596.72;5052853;28;20438;-70
2022/06/05 04:52:01;;;;;;;9.60;3.90;;;;;;;13.54;91.83;101585.13;5052592;28;20507;-68
2022/06/05 04:54:27;;;;;;;6.87;5.10;;;;;;;13.55;90.64;101583.25;5052523;28;20823;-67
2022/06/05 04:56:54;;;;;;;9.83;4.30;;;;;;;13.62;89.29;101583.66;5052782;28;20532;-67
2022/06/05 04:59:21;;;;;;;5.37;3.90;;;;;;;13.73;87.96;101567.97;5052531;28;20951;-68
2022/06/05 05:01:49;;;;;;;4.93;3.20;;;;;;;13.80;88.36;101574.63;5052301;28;21035;-67
2022/06/05 05:04:16;;;;;;;8.30;3.97;;;;;;;13.87;88.73;101577.78;5052896;28;20442;-68
2022/06/05 05:06:44;;;;;;;9.33;4.10;;;;;;;13.93;88.53;101575.78;5052771;28;20435;-67
2022/06/05 05:09:11;;;;;;;5.67;3.57;;;;;;;13.99;88.33;101581.94;5052431;28;20958;-66
2022/06/05 05:11:38;;;;;;;6.40;4.00;;;;;;;14.08;88.42;101597.31;5052601;28;20842;-67
2022/06/05 05:14:05;;;;;;;6.33;3.63;;;;;;;14.16;87.67;101587.63;5052709;28;20473;-67
2022/06/05 05:16:32;;;;;;;7.67;3.40;;;;;;;14.24;87.19;101586.13;5052858;28;20589;-67
2022/06/05 05:19:00;;;;;;;9.00;3.07;;;;;;;14.33;87.39;101585.13;5052695;28;20936;-67
2022/06/05 05:21:27;;;;;;;5.13;3.30;;;;;;;14.43;87.27;101583.31;5052505;28;20540;-67
2022/06/05 05:23:55;;;;;;;7.73;4.47;;;;;;;14.51;87.05;101582.66;5052662;28;20982;-67
2022/06/05 05:26:24;;;;;;;6.33;3.23;;;;;;;14.57;86.78;101581.44;5052875;28;20441;-68
2022/06/05 05:28:52;;;;;;;6.03;3.67;;;;;;;14.62;86.49;101578.63;5052939;28;20472;-66
2022/06/05 05:31:20;;;;;;;6.33;3.53;;;;;;;14.69;85.72;101573.53;5052135;28;20843;-67
2022/06/05 05:33:49;;;;;;;4.83;3.60;;;;;;;14.76;85.27;101573.16;5052456;28;20978;-67
2022/06/05 05:36:18;;;;;;;4.63;3.07;;;;;;;14.79;83.96;101570.63;5052523;28;20848;-68
2022/06/05 05:44:11;;;;;;;8.13;3.77;;;;;;;15.07;82.16;101562.38;5053147;28;20434;-68
2022/06/05 05:46:37;;;;;;;6.20;3.53;;;;;;;15.14;80.81;101563.59;5055821;28;20931;-70
2022/06/05 05:49:04;;;;;;;6.17;3.40;;;;;;;15.19;79.56;101565.38;5055922;28;20537;-70
2022/06/05 05:51:32;;;;;;;4.60;3.20;;;;;;;15.29;79.44;101554.22;5055818;28;20497;-68
2022/06/05 05:54:00;;;;;;;6.60;3.87;;;;;;;15.38;79.58;101552.38;5055944;28;20450;-69
2022/06/05 05:56:26;;;;;;;5.40;3.30;;;;;;;15.49;79.52;101541.19;5055468;28;20492;-69
2022/06/05 05:58:53;;;;;;;12.43;3.30;;;;;;;15.53;78.16;101547.66;5055785;28;20533;-68
2022/06/05 06:01:19;;;;;;;10.00;4.43;;;;;;;15.60;78.38;101548.84;5079987;22;20498;-72
2022/06/05 06:03:46;;;;;;;6.73;4.30;;;;;;;15.71;77.55;101551.34;5055687;28;20473;-71
2022/06/05 06:06:13;;;;;;;3.50;2.47;;;;;;;15.82;76.85;101550.78;5055354;28;21010;-72
2022/06/05 06:08:41;;;;;;;4.50;3.10;;;;;;;15.97;76.55;101565.16;5055623;28;20448;-71
2022/06/05 06:11:08;;;;;;;5.13;3.47;;;;;;;16.02;77.05;101565.00;5055550;28;20466;-73
2022/06/05 06:13:37;;;;;;;4.07;2.63;;;;;;;16.11;76.14;101558.50;5055505;28;20482;-73
2022/06/05 06:16:04;;;;;;;3.80;2.00;;;;;;;16.20;76.22;101563.97;5055392;28;20482;-73
2022/06/05 06:18:31;;;;;;;3.87;2.53;;;;;;;16.28;76.39;101554.22;5055699;28;20453;-73
2022/06/05 06:20:58;;;;;;;6.80;3.20;;;;;;;16.35;74.13;101555.38;5055739;28;20498;-73
2022/06/05 06:23:24;;;;;;;7.63;3.30;;;;;;;16.48;74.65;101561.84;5055833;28;20517;-74
2022/06/05 06:25:52;;;;;;;3.53;2.93;;;;;;;16.62;74.11;101565.25;5055605;28;20944;-74
2022/06/05 06:28:19;;;;;;;3.37;2.50;;;;;;;16.72;73.32;101564.19;5055709;28;20943;-74
2022/06/05 06:30:46;;;;;;;9.70;3.30;;;;;;;16.82;73.08;101561.19;5055755;28;20524;-73
2022/06/05 06:33:13;;;;;;;3.33;2.40;;;;;;;16.90;73.81;101560.34;5055847;28;20492;-73
2022/06/05 06:35:39;;;;;;;5.50;2.43;;;;;;;16.98;73.57;101560.69;5055291;28;20968;-74
2022/06/05 06:38:07;;;;;;;3.97;2.97;;;;;;;17.02;73.04;101564.41;5055774;28;20525;-73
2022/06/05 06:40:35;;;;;;;4.30;3.10;;;;;;;17.06;72.97;101559.91;5055503;28;20466;-74
2022/06/05 06:43:04;;;;;;;5.60;3.10;;;;;;;17.17;72.68;101561.19;5055596;28;20438;-73
2022/06/05 06:45:31;;;;;;;3.97;2.30;;;;;;;17.26;71.53;101559.25;5055500;28;20446;-70
2022/06/05 06:47:57;;;;;;;5.03;2.67;;;;;;;17.33;69.34;101556.84;5055534;28;20496;-74
2022/06/05 06:50:24;;;;;;;5.07;3.20;;;;;;;17.42;69.50;101556.03;5055710;28;20454;-74
2022/06/05 06:52:51;;;;;;;3.10;2.50;;;;;;;17.47;69.62;101555.88;5055427;28;20500;-73
2022/06/05 06:55:18;;;;;;;3.33;2.60;;;;;;;17.52;70.68;101561.19;5054919;28;20532;-74
2022/06/05 06:57:46;;;;;;;7.00;4.33;;;;;;;17.60;71.02;101557.63;5055205;28;20490;-74
2022/06/05 07:00:17;;;;;;;3.70;2.80;;;;;;;17.67;68.54;101559.91;5054836;28;20474;-74
2022/06/05 07:02:44;;;;;;;3.83;2.10;;;;;;;17.74;68.96;101557.47;5055295;28;20451;-74
2022/06/05 07:05:11;;;;;;;4.33;3.00;;;;;;;17.78;69.12;101553.75;5054768;28;20473;-73
2022/06/05 07:07:38;;;;;;;4.30;3.10;;;;;;;17.86;69.59;101547.44;5055119;28;20533;-74
2022/06/05 07:10:06;;;;;;;4.80;3.40;;;;;;;17.99;69.36;101550.31;5054861;28;20446;-74
2022/06/05 07:12:34;;;;;;;5.60;2.83;;;;;;;18.06;69.19;101545.97;5054460;28;20454;-74
2022/06/05 07:15:00;;;;;;;4.73;3.13;;;;;;;18.14;69.42;101538.81;5054812;28;20430;-74
2022/06/05 07:17:28;;;;;;;5.33;3.80;;;;;;;18.20;69.70;101537.50;5054180;28;20481;-74
2022/06/05 07:19:55;;;;;;;3.90;2.80;;;;;;;18.31;67.20;101537.94;5054643;28;20434;-74
2022/06/05 07:22:22;;;;;;;4.00;3.30;;;;;;;18.43;67.01;101526.28;5054575;28;20545;-73
2022/06/05 07:24:49;;;;;;;5.57;2.67;;;;;;;18.48;66.29;101529.63;5054587;28;20486;-73
2022/06/05 07:27:15;;;;;;;5.30;2.50;;;;;;;18.57;66.70;101529.56;5054713;28;20430;-73
2022/06/05 07:29:42;;;;;;;5.77;2.67;;;;;;;18.66;66.72;101524.84;5054374;28;20939;-73
2022/06/05 07:32:11;;;;;;;3.50;2.90;;;;;;;18.75;63.62;101525.59;5054224;28;20549;-74
2022/06/05 07:34:39;;;;;;;3.43;2.17;;;;;;;18.83;63.90;101508.28;5054592;28;20450;-73
2022/06/05 07:37:05;;;;;;;4.20;3.13;;;;;;;18.93;64.55;101509.81;5054564;28;20874;-74
2022/06/05 07:39:32;;;;;;;3.97;2.67;;;;;;;18.98;66.29;101506.06;5054200;28;20443;-74
2022/06/05 07:41:59;;;;;;;3.50;2.33;;;;;;;19.07;66.70;101507.59;5054129;28;20465;-74
2022/06/05 07:44:26;;;;;;;4.40;2.80;;;;;;;19.16;66.55;101504.78;5053673;28;20512;-73
2022/06/05 07:46:54;;;;;;;4.30;2.73;;;;;;;19.26;65.84;101493.38;5053633;28;20446;-74
2022/06/05 07:49:21;;;;;;;9.87;3.57;;;;;;;19.38;65.71;101492.59;5053530;28;20528;-74
2022/06/05 07:54:35;;;;;;;2.97;2.20;;;;;;;19.54;65.00;101493.59;5053664;28;20406;-74
2022/06/05 07:57:05;;;;;;;6.13;2.50;;;;;;;19.63;63.75;101494.31;5053944;28;20826;-73
2022/06/05 07:59:33;;;;;;;7.40;3.20;;;;;;;19.75;61.88;101488.06;5053852;28;20484;-78
2022/06/05 08:02:03;;;;;;;5.87;2.90;;;;;;;19.85;62.20;101490.34;5053625;28;20519;-71
2022/06/05 08:04:30;;;;;;;3.33;3.03;;;;;;;19.83;60.38;101492.66;5053792;28;20452;-72
2022/06/05 08:07:00;;;;;;;4.33;2.70;;;;;;;19.88;60.82;101494.38;5052672;28;20434;-71
2022/06/05 08:09:29;;;;;;;4.00;2.30;;;;;;;19.90;60.32;101487.38;5053605;28;20456;-71
2022/06/05 08:11:56;;;;;;;4.60;2.77;;;;;;;19.97;60.14;101486.03;5053265;28;20558;-72
2022/06/05 08:14:23;;;;;;;3.90;2.33;;;;;;;19.95;59.65;101485.56;5053120;28;20533;-71
2022/06/05 08:16:50;;;;;;;4.50;2.63;;;;;;;20.08;60.37;101482.47;5053197;28;21082;-71
2022/06/05 08:19:19;;;;;;;2.30;2.00;;;;;;;20.21;60.35;101480.50;5053403;28;20892;-70
2022/06/05 08:21:47;;;;;;;3.67;2.43;;;;;;;20.35;60.10;101475.44;5053345;28;20481;-71
2022/06/05 08:24:15;;;;;;;5.70;2.70;;;;;;;20.47;60.17;101480.16;5053393;28;20442;-72
2022/06/05 08:26:42;;;;;;;5.50;2.70;;;;;;;20.51;57.85;101478.34;5053310;28;20485;-73
2022/06/05 08:29:09;;;;;;;3.87;2.60;;;;;;;20.63;58.99;101477.53;5053353;28;20442;-73
2022/06/05 08:31:37;;;;;;;4.93;2.40;;;;;;;20.81;59.00;101476.09;5053502;28;20470;-73
2022/06/05 08:34:04;;;;;;;3.50;2.77;;;;;;;20.90;56.83;101474.00;5053425;28;20442;-73
2022/06/05 08:36:31;;;;;;;3.27;2.50;;;;;;;20.98;56.13;101471.44;5053355;28;20528;-73
2022/06/05 08:41:55;;;;;;;3.17;1.90;;;;;;;21.15;54.97;101463.66;5053569;28;20456;-73
2022/06/05 08:44:33;;;;;;;2.80;2.30;;;;;;;21.26;55.26;101468.69;5053371;28;20493;-73
2022/06/05 08:47:04;;;;;;;3.20;2.37;;;;;;;21.35;53.78;101461.91;5053444;28;20422;-73
2022/06/05 08:49:42;;;;;;;2.40;2.00;;;;;;;21.40;54.01;101467.16;5053442;28;20783;-74
2022/06/05 08:52:20;;;;;;;3.70;2.00;;;;;;;21.48;54.52;101459.06;5053184;28;20503;-73
2022/06/05 08:54:52;;;;;;;2.70;2.37;;;;;;;21.57;54.65;101451.44;5053568;28;20544;-73
2022/06/05 08:57:26;;;;;;;4.77;2.63;;;;;;;21.69;53.22;101454.09;5053039;28;20466;-73
2022/06/05 08:59:58;;;;;;;4.03;3.20;;;;;;;21.79;53.95;101452.78;5052852;28;20442;-73
2022/06/05 09:02:34;;;;;;;5.47;2.73;;;;;;;21.86;52.62;101458.47;5052767;28;20469;-73
2022/06/05 09:05:05;;;;;;;2.17;1.93;;;;;;;21.91;51.70;101450.72;5053333;28;20446;-73
2022/06/05 09:07:38;;;;;;;3.90;2.50;;;;;;;21.99;52.29;101440.66;5052839;28;20545;-73
2022/06/05 09:10:13;;;;;;;3.47;2.23;;;;;;;22.10;51.96;101440.91;5053144;28;20459;-73
2022/06/05 09:12:47;;;;;;;2.97;2.23;;;;;;;22.16;51.96;101445.03;5052886;28;20427;-73
2022/06/05 09:15:19;;;;;;;2.70;1.97;;;;;;;22.20;50.68;101445.91;5052810;28;20422;-73
2022/06/05 09:17:54;;;;;;;2.87;2.07;;;;;;;22.25;50.56;101448.38;5053447;28;20907;-73
2022/06/05 09:20:27;;;;;;;3.27;2.10;;;;;;;22.26;48.41;101441.69;5056719;28;20513;-73
2022/06/05 09:22:59;;;;;;;2.90;2.10;;;;;;;22.42;49.87;101434.19;5056580;28;20430;-73
2022/06/05 09:25:40;;;;;;;3.30;2.20;;;;;;;22.56;48.89;101436.44;5056812;28;20484;-74
2022/06/05 09:28:51;;;;;;;2.60;1.40;;;;;;;22.69;47.40;101419.75;5056440;28;20433;-73
2022/06/05 09:31:46;;;;;;;2.57;1.70;;;;;;;22.79;47.79;101410.88;5056393;28;20469;-73
2022/06/05 09:34:14;;;;;;;2.60;2.10;;;;;;;22.93;48.08;101425.00;5056665;28;20466;-73
2022/06/05 09:36:45;;;;;;;2.67;2.00;;;;;;;23.03;47.10;101423.63;5056345;28;20581;-72
2022/06/05 09:39:26;;;;;;;3.63;2.00;;;;;;;23.12;47.08;101422.22;5056472;28;20427;-72
2022/06/05 09:42:05;;;;;;;2.20;1.70;;;;;;;23.28;47.48;101416.56;5056365;28;20979;-73
2022/06/05 09:44:46;;;;;;;2.73;1.90;;;;;;;23.41;45.52;101414.44;5056484;28;20422;-72
2022/06/05 09:47:22;;;;;;;2.80;1.93;;;;;;;23.53;46.64;101411.50;5056731;28;20506;-72
2022/06/05 09:49:55;;;;;;;3.17;1.97;;;;;;;23.65;47.20;101416.88;5056508;28;20444;-72
2022/06/05 09:52:24;;;;;;;2.57;1.87;;;;;;;23.70;45.39;101415.75;5056323;28;20472;-72
2022/06/05 09:55:01;;;;;;;2.00;1.80;;;;;;;23.86;45.99;101413.66;5056133;28;20496;-72
2022/06/05 10:00:31;;;;;;;5.00;2.10;;;;;;;24.14;44.52;101415.25;5055845;28;20915;-72
2022/06/05 10:03:02;;;;;;;5.60;2.70;;;;;;;24.22;45.79;101411.41;5056165;28;20519;-72
2022/06/05 10:05:31;;;;;;;4.10;2.27;;;;;;;24.33;43.69;101412.34;5056188;28;20451;-73
2022/06/05 10:08:04;;;;;;;3.17;2.20;;;;;;;24.47;45.68;101413.75;5055885;28;20480;-76
2022/06/05 10:10:36;;;;;;;2.80;2.13;;;;;;;24.56;44.34;101412.28;5055746;28;20450;-70
2022/06/05 10:13:09;;;;;;;2.60;2.30;;;;;;;24.58;43.95;101396.09;5055945;28;20445;-72
2022/06/05 10:15:44;;;;;;;2.97;1.97;;;;;;;24.74;42.75;101412.50;5056062;28;20789;-72
2022/06/05 10:18:18;;;;;;;5.00;1.90;;;;;;;24.65;41.39;101400.91;5055734;28;20466;-71
2022/06/05 10:21:06;;;;;;;5.33;2.17;;;;;;;24.71;43.10;101402.19;5055730;28;20466;-71
2022/06/05 10:23:42;;;;;;;3.43;1.97;;;;;;;24.79;43.19;101378.94;5055832;28;20440;-71
2022/06/05 10:26:17;;;;;;;3.50;1.73;;;;;;;24.72;43.28;101384.38;5055884;28;20530;-71
2022/06/05 10:28:46;;;;;;;7.97;2.30;;;;;;;24.71;43.64;101374.47;5055589;28;20862;-72
2022/06/05 10:31:16;;;;;;;2.67;1.70;;;;;;;24.68;42.88;101372.47;5054781;28;20458;-72
2022/06/05 10:33:53;;;;;;;2.67;2.03;;;;;;;24.86;44.50;101365.13;5055209;28;20959;-72
2022/06/05 10:36:23;;;;;;;4.17;2.50;;;;;;;25.10;43.97;101358.28;5055654;28;20430;-72
2022/06/05 10:39:01;;;;;;;2.00;1.70;;;;;;;25.28;43.13;101361.22;5055443;28;20482;-72
2022/06/05 10:41:37;;;;;;;6.00;2.20;;;;;;;25.52;44.62;101361.81;5055127;28;20458;-71
2022/06/05 10:44:19;;;;;;;3.03;1.80;;;;;;;25.67;42.14;101355.19;5055071;28;20859;-71
2022/06/05 10:47:01;;;;;;;2.53;1.97;;;;;;;25.73;42.96;101350.88;5055026;28;20430;-71
2022/06/05 10:49:36;;;;;;;2.70;2.17;;;;;;;25.84;42.61;101354.53;5054964;28;20427;-71
2022/06/05 10:52:13;;;;;;;2.40;2.13;;;;;;;25.95;43.46;101349.06;5054510;28;21062;-71
2022/06/05 10:54:46;;;;;;;3.07;2.23;;;;;;;26.05;41.38;101344.75;5054866;28;20469;-71
2022/06/05 10:57:20;;;;;;;2.40;2.03;;;;;;;26.21;40.71;101328.56;5054770;28;20557;-71
2022/06/05 10:59:55;;;;;;;3.43;2.03;;;;;;;26.36;40.41;101319.09;5054771;28;21021;-71
2022/06/05 11:02:41;;;;;;;4.07;1.70;;;;;;;26.47;41.19;101310.03;5054247;28;20481;-72
2022/06/05 11:05:27;;;;;;;2.10;1.90;;;;;;;26.60;40.27;101311.25;5054672;28;20454;-71
2022/06/05 11:08:00;;;;;;;2.23;2.00;;;;;;;26.61;39.67;101313.66;5054581;28;20426;-71
2022/06/05 11:13:42;;;;;;;4.10;2.33;;;;;;;26.90;41.37;101306.16;5054229;28;20549;-71
2022/06/05 11:16:20;;;;;;;2.40;2.20;;;;;;;27.15;41.02;101313.75;5054291;28;20421;-71
2022/06/05 11:18:58;;;;;;;2.57;2.30;;;;;;;27.56;39.82;101316.91;5054166;28;20557;-71
2022/06/05 11:21:29;;;;;;;2.10;1.90;;;;;;;28.02;39.58;101318.81;5053995;28;20549;-71
2022/06/05 11:23:58;;;;;;;2.60;1.87;;;;;;;28.63;39.60;101321.34;5054263;28;20517;-72
2022/06/05 11:26:36;;;;;;;2.70;2.07;;;;;;;29.20;38.50;101309.81;5054361;28;20469;-72
2022/06/05 11:29:19;;;;;;;3.00;2.37;;;;;;;29.75;37.37;101303.34;5054437;28;20422;-72
2022/06/05 11:31:59;;;;;;;2.90;2.33;;;;;;;30.04;37.28;101308.59;5054018;28;20458;-72
2022/06/05 11:34:37;;;;;;;6.30;2.70;;;;;;;30.24;35.79;101294.78;5054037;28;20513;-72
2022/06/05 11:37:22;;;;;;;3.00;2.33;;;;;;;30.65;36.31;101286.25;5053688;28;20937;-72
2022/06/05 11:39:57;;;;;;;2.70;2.30;;;;;;;31.04;35.96;101282.06;5054236;28;20430;-70
2022/06/05 11:42:27;;;;;;;2.77;2.10;;;;;;;31.30;35.43;101278.44;5053837;28;20556;-70
2022/06/05 11:45:01;;;;;;;2.03;1.83;;;;;;;31.27;34.63;101276.47;5053851;28;20438;-72
2022/06/05 11:47:39;;;;;;;2.30;1.90;;;;;;;31.49;34.76;101270.50;5053798;28;20513;-72
2022/06/05 11:50:14;;;;;;;2.47;2.07;;;;;;;31.73;34.30;101263.59;5053781;28;20843;-72
2022/06/05 11:52:47;;;;;;;2.13;1.80;;;;;;;31.85;32.94;101257.38;5053389;28;20437;-70
2022/06/05 11:55:27;;;;;;;2.70;2.07;;;;;;;31.65;32.55;101250.97;5053719;28;20423;-72
2022/06/05 11:58:01;;;;;;;2.50;1.67;;;;;;;31.59;33.00;101245.06;5053328;28;21149;-71
2022/06/05 12:00:33;;;;;;;3.90;1.93;;;;;;;31.59;33.63;101236.66;5053428;28;20786;-72